Time;durP1;ratioP1;P1;durP2;ratioP2;P2;SDS_P1;SDS_P2;PMS_P1;PMS_P2;Temp;Humidity;BMP_temperature;BMP_pressure;BME280_temperature;BME280_humidity;BME280_pressure;Samples;Min_cycle;Max_cycle;Signal;HPM_P1;HPM_P2
2024/04/02 00:02:16;;;;;;;;;2.00;1.00;;;;;;;;5100740;27;45483;-77
2024/04/02 00:04:41;;;;;;;;;1.00;1.00;;;;;;;;5100612;27;45333;-76
2024/04/02 00:07:06;;;;;;;;;1.00;1.00;;;;;;;;5099493;27;45449;-75
2024/04/02 00:09:31;;;;;;;;;1.00;1.00;;;;;;;;5100799;27;45483;-76
2024/04/02 00:11:57;;;;;;;;;1.00;1.00;;;;;;;;5099030;27;47417;-76
2024/04/02 00:14:22;;;;;;;;;1.00;1.00;;;;;;;;5100739;27;45436;-76
2024/04/02 00:16:47;;;;;;;;;1.00;0.00;;;;;;;;5100880;27;45325;-76
2024/04/02 00:19:14;;;;;;;;;2.33;2.00;;;;;;;;5100532;27;45405;-76
2024/04/02 00:21:39;;;;;;;;;2.67;1.00;;;;;;;;5099216;27;47341;-75
2024/04/02 00:24:04;;;;;;;;;2.33;1.00;;;;;;;;5098994;27;45287;-76
2024/04/02 00:26:30;;;;;;;;;1.00;1.00;;;;;;;;5100643;27;45186;-76
2024/04/02 00:28:55;;;;;;;;;3.00;3.00;;;;;;;;5100531;27;45297;-76
2024/04/02 00:31:21;;;;;;;;;2.00;2.00;;;;;;;;5100381;27;45232;-76
2024/04/02 00:33:46;;;;;;;;;2.00;2.00;;;;;;;;5100273;27;45274;-76
2024/04/02 00:36:11;;;;;;;;;3.33;2.33;;;;;;;;5098756;27;45225;-76
2024/04/02 00:38:37;;;;;;;;;2.00;2.00;;;;;;;;5100590;27;45202;-76
2024/04/02 00:41:02;;;;;;;;;4.33;2.00;;;;;;;;5100079;27;46133;-76
2024/04/02 00:43:28;;;;;;;;;3.67;2.00;;;;;;;;5098929;27;45274;-76
2024/04/02 00:45:53;;;;;;;;;2.00;2.00;;;;;;;;5100431;27;45207;-76
2024/04/02 00:48:19;;;;;;;;;2.00;1.00;;;;;;;;5098710;27;46241;-76
2024/04/02 00:50:45;;;;;;;;;1.00;1.00;;;;;;;;5098471;27;48187;-76
2024/04/02 00:53:11;;;;;;;;;4.00;2.00;;;;;;;;5099931;27;45310;-75
2024/04/02 00:55:37;;;;;;;;;3.00;1.67;;;;;;;;5100105;27;45360;-76
2024/04/02 00:58:03;;;;;;;;;1.00;1.00;;;;;;;;5086051;27;45520;-76
2024/04/02 01:00:29;;;;;;;;;3.00;2.00;;;;;;;;5078084;28;48358;-76
2024/04/02 01:02:54;;;;;;;;;1.00;1.00;;;;;;;;5078087;28;45904;-76
2024/04/02 01:05:19;;;;;;;;;3.67;3.33;;;;;;;;5079603;28;45468;-76
2024/04/02 01:07:44;;;;;;;;;2.67;2.00;;;;;;;;5079588;28;45265;-76
2024/04/02 01:10:09;;;;;;;;;2.00;2.00;;;;;;;;5077830;28;47954;-76
2024/04/02 01:12:35;;;;;;;;;1.00;1.00;;;;;;;;5078244;28;45295;-75
2024/04/02 01:15:00;;;;;;;;;5.00;4.00;;;;;;;;5079400;28;45176;-76
2024/04/02 01:17:25;;;;;;;;;1.00;1.00;;;;;;;;5079300;28;45294;-76
2024/04/02 01:19:51;;;;;;;;;3.33;2.00;;;;;;;;5078549;28;45946;-75
2024/04/02 01:22:16;;;;;;;;;1.67;1.00;;;;;;;;5078582;28;45316;-75
2024/04/02 01:24:46;;;;;;;;;2.67;2.00;;;;;;;;5077908;28;45291;-76
2024/04/02 01:27:11;;;;;;;;;3.00;2.33;;;;;;;;5077408;28;46545;-76
2024/04/02 01:29:37;;;;;;;;;3.00;2.00;;;;;;;;5077670;28;48449;-76
2024/04/02 01:32:02;;;;;;;;;7.67;5.00;;;;;;;;5079218;28;45330;-75
2024/04/02 01:34:27;;;;;;;;;2.00;2.00;;;;;;;;5077821;28;45446;-76
2024/04/02 01:36:52;;;;;;;;;2.33;1.67;;;;;;;;5077532;28;47067;-76
2024/04/02 01:39:18;;;;;;;;;2.33;2.00;;;;;;;;5079258;28;45571;-76
2024/04/02 01:41:43;;;;;;;;;3.00;2.33;;;;;;;;5078531;28;45325;-75
2024/04/02 01:44:08;;;;;;;;;3.00;2.00;;;;;;;;5078916;28;45374;-76
2024/04/02 01:46:34;;;;;;;;;2.33;2.33;;;;;;;;5078920;28;45550;-75
2024/04/02 01:48:59;;;;;;;;;2.00;2.00;;;;;;;;5080775;28;46445;-75
2024/04/02 01:51:26;;;;;;;;;2.33;2.00;;;;;;;;5082512;28;45253;-75
2024/04/02 01:53:51;;;;;;;;;2.00;2.00;;;;;;;;5082443;28;45274;-75
2024/04/02 01:56:16;;;;;;;;;2.00;1.33;;;;;;;;5080848;28;46138;-76
2024/04/02 01:58:41;;;;;;;;;1.67;1.67;;;;;;;;5101550;27;45309;-75
2024/04/02 02:01:06;;;;;;;;;3.00;3.00;;;;;;;;5102882;27;45310;-76
2024/04/02 02:03:32;;;;;;;;;1.00;1.00;;;;;;;;5100871;27;45242;-75
2024/04/02 02:05:57;;;;;;;;;2.33;1.67;;;;;;;;5101468;27;45282;-75
2024/04/02 02:08:22;;;;;;;;;3.00;3.00;;;;;;;;5101730;27;46507;-76
2024/04/02 02:10:47;;;;;;;;;4.67;4.67;;;;;;;;5102428;27;45332;-75
2024/04/02 02:13:13;;;;;;;;;2.00;2.00;;;;;;;;5101268;27;45253;-75
2024/04/02 02:15:38;;;;;;;;;1.00;1.00;;;;;;;;5101597;27;45341;-76
2024/04/02 02:18:03;;;;;;;;;1.33;1.00;;;;;;;;5102587;27;45374;-75
2024/04/02 02:20:29;;;;;;;;;3.67;3.67;;;;;;;;5102638;27;45328;-76
2024/04/02 02:22:54;;;;;;;;;4.33;4.33;;;;;;;;5093048;27;45411;-77
2024/04/02 02:25:19;;;;;;;;;4.33;2.00;;;;;;;;5080368;28;47245;-76
2024/04/02 02:27:44;;;;;;;;;2.00;2.00;;;;;;;;5082082;28;45566;-75
2024/04/02 02:30:12;;;;;;;;;3.67;1.33;;;;;;;;5081991;28;45322;-75
2024/04/02 02:32:37;;;;;;;;;2.00;2.00;;;;;;;;5082158;28;45384;-75
2024/04/02 02:35:03;;;;;;;;;6.33;2.00;;;;;;;;5080102;28;47301;-76
2024/04/02 02:37:28;;;;;;;;;2.00;2.00;;;;;;;;5081775;28;45353;-75
2024/04/02 02:39:54;;;;;;;;;4.00;4.00;;;;;;;;5081747;28;45277;-76
2024/04/02 02:42:19;;;;;;;;;1.33;1.33;;;;;;;;5081596;28;45508;-75
2024/04/02 02:44:45;;;;;;;;;4.00;1.00;;;;;;;;5081710;28;45228;-76
2024/04/02 02:47:10;;;;;;;;;0.33;0.00;;;;;;;;5081553;28;45228;-75
2024/04/02 02:49:35;;;;;;;;;2.00;2.00;;;;;;;;5081569;28;45244;-76
2024/04/02 02:52:00;;;;;;;;;4.33;3.00;;;;;;;;5080220;28;45295;-76
2024/04/02 02:54:25;;;;;;;;;2.00;2.00;;;;;;;;5081179;28;45438;-75
2024/04/02 02:56:51;;;;;;;;;2.00;2.00;;;;;;;;5083357;27;47200;-76
2024/04/02 02:59:16;;;;;;;;;3.00;1.00;;;;;;;;5100151;27;45237;-76
2024/04/02 03:01:41;;;;;;;;;5.00;2.00;;;;;;;;5102042;27;45265;-76
2024/04/02 03:04:06;;;;;;;;;1.33;1.33;;;;;;;;5101857;27;45211;-75
2024/04/02 03:06:32;;;;;;;;;2.33;2.33;;;;;;;;5100409;27;48347;-75
2024/04/02 03:08:57;;;;;;;;;4.00;3.00;;;;;;;;5101769;27;45384;-75
2024/04/02 03:11:22;;;;;;;;;5.00;3.00;;;;;;;;5101713;27;45297;-75
2024/04/02 03:13:47;;;;;;;;;3.00;2.00;;;;;;;;5101704;27;45380;-75
2024/04/02 03:16:12;;;;;;;;;2.00;2.00;;;;;;;;5100188;27;46991;-75
2024/04/02 03:18:38;;;;;;;;;6.67;2.00;;;;;;;;5100184;27;45296;-76
2024/04/02 03:21:04;;;;;;;;;2.00;2.00;;;;;;;;5101807;27;45417;-76
2024/04/02 03:23:29;;;;;;;;;3.00;2.33;;;;;;;;5099299;27;45322;-76
2024/04/02 03:25:55;;;;;;;;;2.00;2.00;;;;;;;;5080707;28;45451;-76
2024/04/02 03:28:21;;;;;;;;;3.67;2.67;;;;;;;;5080952;28;45397;-76
2024/04/02 03:30:46;;;;;;;;;2.67;1.33;;;;;;;;5078275;28;45457;-75
2024/04/02 03:33:11;;;;;;;;;1.00;1.00;;;;;;;;5079305;28;47165;-76
2024/04/02 03:35:37;;;;;;;;;1.67;1.67;;;;;;;;5079099;28;47113;-75
2024/04/02 03:38:03;;;;;;;;;1.00;1.00;;;;;;;;5080903;28;45448;-75
2024/04/02 03:40:28;;;;;;;;;4.33;4.33;;;;;;;;5080864;28;45383;-75
2024/04/02 03:42:53;;;;;;;;;2.67;2.67;;;;;;;;5079413;28;47317;-75
2024/04/02 03:45:19;;;;;;;;;1.00;1.00;;;;;;;;5080744;28;46097;-75
2024/04/02 03:47:45;;;;;;;;;2.00;2.00;;;;;;;;5080807;28;45133;-75
2024/04/02 03:50:10;;;;;;;;;3.00;3.00;;;;;;;;5080738;28;45216;-76
2024/04/02 03:52:35;;;;;;;;;2.33;1.67;;;;;;;;5078895;28;47603;-75
2024/04/02 03:55:00;;;;;;;;;1.67;1.67;;;;;;;;5080559;28;46354;-75
2024/04/02 03:57:26;;;;;;;;;2.00;1.67;;;;;;;;5089170;27;45224;-75
2024/04/02 03:59:51;;;;;;;;;3.67;1.67;;;;;;;;5099834;27;45311;-76
2024/04/02 04:02:16;;;;;;;;;0.67;0.67;;;;;;;;5101023;27;45318;-76
2024/04/02 04:04:41;;;;;;;;;2.00;1.00;;;;;;;;5100875;27;45341;-76
2024/04/02 04:07:06;;;;;;;;;1.00;1.00;;;;;;;;5099446;27;45325;-75
2024/04/02 04:09:31;;;;;;;;;1.33;1.33;;;;;;;;5099020;27;45505;-75
2024/04/02 04:11:56;;;;;;;;;3.00;3.00;;;;;;;;5100314;27;45281;-76
2024/04/02 04:14:22;;;;;;;;;1.33;1.33;;;;;;;;5100692;27;45311;-77
2024/04/02 04:16:48;;;;;;;;;1.33;1.33;;;;;;;;5100851;27;45535;-76
2024/04/02 04:19:13;;;;;;;;;1.00;1.00;;;;;;;;5100909;27;45323;-76
2024/04/02 04:21:39;;;;;;;;;3.33;2.00;;;;;;;;5100545;27;45223;-76
2024/04/02 04:24:04;;;;;;;;;1.00;1.00;;;;;;;;5099099;27;48416;-76
2024/04/02 04:26:30;;;;;;;;;1.00;1.00;;;;;;;;5100400;27;45393;-76
2024/04/02 04:28:56;;;;;;;;;0.67;0.67;;;;;;;;5100594;27;45739;-76
2024/04/02 04:31:21;;;;;;;;;2.00;2.00;;;;;;;;5100458;27;45279;-76
2024/04/02 04:33:46;;;;;;;;;2.00;2.00;;;;;;;;5098807;27;47466;-76
2024/04/02 04:36:12;;;;;;;;;1.00;1.00;;;;;;;;5100422;27;45305;-76
2024/04/02 04:38:37;;;;;;;;;2.00;2.00;;;;;;;;5099158;27;45283;-76
2024/04/02 04:41:02;;;;;;;;;3.00;2.00;;;;;;;;5100215;27;45576;-77
2024/04/02 04:43:27;;;;;;;;;1.00;1.00;;;;;;;;5098942;27;48592;-77
2024/04/02 04:45:56;;;;;;;;;1.00;1.00;;;;;;;;5100336;27;45321;-76
2024/04/02 04:48:22;;;;;;;;;3.00;1.33;;;;;;;;5100399;27;45263;-76
2024/04/02 04:50:54;;;;;;;;;2.00;1.33;;;;;;;;5100005;27;45388;-76
2024/04/02 04:53:19;;;;;;;;;1.00;1.00;;;;;;;;5100114;27;46221;-75
2024/04/02 04:55:44;;;;;;;;;2.00;1.00;;;;;;;;5099945;27;45222;-76
2024/04/02 04:58:09;;;;;;;;;2.00;2.00;;;;;;;;5084106;27;45349;-76
2024/04/02 05:00:34;;;;;;;;;1.00;1.00;;;;;;;;5079689;28;45271;-76
2024/04/02 05:03:00;;;;;;;;;2.67;2.67;;;;;;;;5078151;28;47175;-76
2024/04/02 05:05:25;;;;;;;;;2.00;1.00;;;;;;;;5079351;28;45474;-76
2024/04/02 05:07:57;;;;;;;;;2.00;2.00;;;;;;;;5078321;28;45274;-77
2024/04/02 05:10:25;;;;;;;;;2.00;1.00;;;;;;;;5077761;28;46254;-77
2024/04/02 05:12:50;;;;;;;;;2.33;2.33;;;;;;;;5079035;28;45193;-76
2024/04/02 05:15:15;;;;;;;;;1.00;1.00;;;;;;;;5077816;28;45236;-76
2024/04/02 05:17:41;;;;;;;;;1.00;1.00;;;;;;;;5078155;28;45370;-76
2024/04/02 05:20:06;;;;;;;;;1.00;1.00;;;;;;;;5078837;28;45636;-77
2024/04/02 05:22:31;;;;;;;;;0.67;0.67;;;;;;;;5082286;28;46355;-77
2024/04/02 05:24:56;;;;;;;;;2.67;2.00;;;;;;;;5082684;28;45478;-77
2024/04/02 05:27:22;;;;;;;;;2.00;1.33;;;;;;;;5083292;28;45801;-77
2024/04/02 05:29:47;;;;;;;;;1.00;1.00;;;;;;;;5083015;28;45346;-76
2024/04/02 05:32:12;;;;;;;;;2.00;1.00;;;;;;;;5082802;28;46156;-77
2024/04/02 05:34:37;;;;;;;;;1.33;1.33;;;;;;;;5082707;28;45428;-77
2024/04/02 05:37:03;;;;;;;;;1.00;0.00;;;;;;;;5083085;28;45289;-77
2024/04/02 05:39:28;;;;;;;;;2.00;0.33;;;;;;;;5081370;28;46115;-76
2024/04/02 05:41:53;;;;;;;;;4.00;2.00;;;;;;;;5082413;28;46282;-76
2024/04/02 05:44:19;;;;;;;;;0.00;0.00;;;;;;;;5082612;28;45343;-76
2024/04/02 05:46:44;;;;;;;;;1.67;1.67;;;;;;;;5081936;28;45649;-77
2024/04/02 05:49:10;;;;;;;;;2.00;2.00;;;;;;;;5082230;28;45399;-76
2024/04/02 05:51:35;;;;;;;;;1.00;1.00;;;;;;;;5082018;27;46129;-76
2024/04/02 05:54:00;;;;;;;;;1.00;1.00;;;;;;;;5082184;28;45425;-76
2024/04/02 05:56:25;;;;;;;;;1.67;1.67;;;;;;;;5069836;27;45475;-76
2024/04/02 05:58:50;;;;;;;;;2.00;2.00;;;;;;;;5102029;27;45345;-78
2024/04/02 06:01:16;;;;;;;;;1.67;1.67;;;;;;;;5073960;28;45494;-77
2024/04/02 06:03:41;;;;;;;;;1.00;1.00;;;;;;;;5082284;28;45362;-77
2024/04/02 06:06:07;;;;;;;;;2.00;2.00;;;;;;;;5071996;28;45348;-78
2024/04/02 06:08:32;;;;;;;;;1.33;1.33;;;;;;;;5061020;28;45371;-77
2024/04/02 06:10:57;;;;;;;;;1.67;1.67;;;;;;;;5061564;28;46571;-77
2024/04/02 06:13:22;;;;;;;;;1.00;1.00;;;;;;;;5061906;28;45307;-77
2024/04/02 06:15:48;;;;;;;;;0.67;0.67;;;;;;;;5072564;28;45287;-76
2024/04/02 06:18:13;;;;;;;;;2.00;2.00;;;;;;;;5074828;28;45594;-76
2024/04/02 06:20:38;;;;;;;;;1.00;1.00;;;;;;;;5081990;27;45543;-76
2024/04/02 06:23:03;;;;;;;;;1.67;1.33;;;;;;;;5082024;27;45449;-76
2024/04/02 06:25:28;;;;;;;;;1.00;1.00;;;;;;;;5080778;28;45325;-76
2024/04/02 06:27:54;;;;;;;;;1.67;1.67;;;;;;;;5081999;27;45522;-76
2024/04/02 06:30:19;;;;;;;;;2.00;2.00;;;;;;;;5082122;28;45921;-77
2024/04/02 06:32:44;;;;;;;;;1.33;1.00;;;;;;;;5081416;27;45478;-77
2024/04/02 06:35:09;;;;;;;;;2.33;2.00;;;;;;;;5080522;28;45244;-78
2024/04/02 06:37:34;;;;;;;;;1.00;1.00;;;;;;;;5073291;28;45944;-77
2024/04/02 06:40:00;;;;;;;;;3.00;1.00;;;;;;;;5059975;28;47444;-78
2024/04/02 06:42:25;;;;;;;;;2.00;2.00;;;;;;;;5061923;28;45207;-77
2024/04/02 06:44:51;;;;;;;;;1.33;1.33;;;;;;;;5061649;28;45377;-78
2024/04/02 06:47:16;;;;;;;;;2.00;1.00;;;;;;;;5060149;28;45954;-78
2024/04/02 06:49:41;;;;;;;;;1.00;0.67;;;;;;;;5061255;28;45518;-78
2024/04/02 06:52:06;;;;;;;;;2.67;1.00;;;;;;;;5061341;28;45334;-78
2024/04/02 06:54:31;;;;;;;;;1.00;1.00;;;;;;;;5066385;28;45470;-78
2024/04/02 06:56:57;;;;;;;;;2.00;0.00;;;;;;;;5068480;27;45830;-77
2024/04/02 06:59:22;;;;;;;;;2.33;1.67;;;;;;;;5103208;27;45349;-76
2024/04/02 07:01:48;;;;;;;;;1.33;1.33;;;;;;;;5104273;27;45297;-76
2024/04/02 07:04:13;;;;;;;;;2.67;2.00;;;;;;;;5105502;27;45471;-78
2024/04/02 07:06:38;;;;;;;;;4.33;4.33;;;;;;;;5104802;27;47315;-76
2024/04/02 07:09:04;;;;;;;;;2.67;2.00;;;;;;;;5108455;27;45330;-76
2024/04/02 07:11:29;;;;;;;;;2.00;2.00;;;;;;;;5107543;27;45554;-77
2024/04/02 07:13:54;;;;;;;;;3.00;2.67;;;;;;;;5107552;27;45647;-77
2024/04/02 07:16:20;;;;;;;;;1.67;1.67;;;;;;;;5108741;27;45315;-76
2024/04/02 07:18:45;;;;;;;;;1.67;1.00;;;;;;;;5106935;27;45363;-75
2024/04/02 07:21:10;;;;;;;;;3.00;1.33;;;;;;;;5108955;27;45298;-75
2024/04/02 07:23:36;;;;;;;;;1.67;1.67;;;;;;;;5107672;27;45518;-76
2024/04/02 07:26:02;;;;;;;;;1.67;1.67;;;;;;;;5109038;27;45404;-76
2024/04/02 07:28:27;;;;;;;;;7.33;4.00;;;;;;;;5104330;27;45487;-77
2024/04/02 07:30:53;;;;;;;;;2.67;2.33;;;;;;;;5107180;27;45337;-76
2024/04/02 07:33:18;;;;;;;;;1.00;1.00;;;;;;;;5094606;27;45341;-75
2024/04/02 07:35:43;;;;;;;;;1.00;1.00;;;;;;;;5090296;28;45279;-76
2024/04/02 07:38:09;;;;;;;;;1.00;1.00;;;;;;;;5087288;28;46138;-76
2024/04/02 07:40:34;;;;;;;;;2.33;1.67;;;;;;;;5083180;28;45449;-76
2024/04/02 07:42:59;;;;;;;;;1.00;1.00;;;;;;;;5083322;28;45252;-76
2024/04/02 07:45:25;;;;;;;;;2.33;2.33;;;;;;;;5080576;27;45998;-76
2024/04/02 07:47:50;;;;;;;;;2.33;1.33;;;;;;;;5086319;28;47045;-76
2024/04/02 07:50:15;;;;;;;;;1.00;1.00;;;;;;;;5087371;28;45261;-77
2024/04/02 07:52:40;;;;;;;;;2.00;2.00;;;;;;;;5090268;28;45495;-77
2024/04/02 07:55:05;;;;;;;;;1.00;1.00;;;;;;;;5089489;28;45173;-77
2024/04/02 07:57:31;;;;;;;;;4.00;2.00;;;;;;;;5094104;27;46102;-77
2024/04/02 07:59:56;;;;;;;;;3.67;3.67;;;;;;;;5105359;27;45168;-77
2024/04/02 08:02:21;;;;;;;;;3.00;2.00;;;;;;;;5106652;27;45562;-76
2024/04/02 08:04:50;;;;;;;;;3.67;3.67;;;;;;;;5109189;27;45270;-77
2024/04/02 08:07:17;;;;;;;;;5.00;3.00;;;;;;;;5105476;27;45317;-76
2024/04/02 08:09:42;;;;;;;;;2.33;2.33;;;;;;;;5106162;27;45366;-76
2024/04/02 08:12:08;;;;;;;;;0.00;0.00;;;;;;;;5109334;27;45528;-76
2024/04/02 08:14:33;;;;;;;;;0.00;0.00;;;;;;;;5106739;27;46428;-76
2024/04/02 08:16:59;;;;;;;;;3.67;3.00;;;;;;;;5104504;27;45818;-76
2024/04/02 08:19:24;;;;;;;;;1.00;1.00;;;;;;;;5106067;27;45405;-77
2024/04/02 08:21:49;;;;;;;;;6.00;5.00;;;;;;;;5106815;27;45306;-76
2024/04/02 08:24:14;;;;;;;;;2.33;2.33;;;;;;;;5103867;27;45220;-75
2024/04/02 08:26:40;;;;;;;;;3.00;3.00;;;;;;;;5100141;27;48167;-76
2024/04/02 08:29:05;;;;;;;;;2.00;2.00;;;;;;;;5103048;27;45198;-76
2024/04/02 08:31:30;;;;;;;;;6.00;3.00;;;;;;;;5104397;27;45347;-75
2024/04/02 08:33:55;;;;;;;;;2.00;1.33;;;;;;;;5101739;27;47188;-76
2024/04/02 08:36:20;;;;;;;;;4.33;3.00;;;;;;;;5099905;27;47294;-76
2024/04/02 08:38:46;;;;;;;;;3.00;2.00;;;;;;;;5101156;27;45353;-76
2024/04/02 08:41:12;;;;;;;;;3.67;1.67;;;;;;;;5100893;27;45238;-76
2024/04/02 08:43:39;;;;;;;;;2.67;2.00;;;;;;;;5099368;27;47024;-75
2024/04/02 08:46:05;;;;;;;;;3.00;2.00;;;;;;;;5100857;27;45328;-74
2024/04/02 08:48:30;;;;;;;;;2.00;2.00;;;;;;;;5101870;27;45271;-75
2024/04/02 08:50:56;;;;;;;;;3.00;3.00;;;;;;;;5100727;27;45523;-75
2024/04/02 08:53:21;;;;;;;;;3.00;3.00;;;;;;;;5095071;27;45289;-75
2024/04/02 08:55:46;;;;;;;;;1.67;1.67;;;;;;;;5080043;28;45343;-76
2024/04/02 08:58:12;;;;;;;;;2.00;1.33;;;;;;;;5080691;28;45218;-76
2024/04/02 09:00:37;;;;;;;;;2.67;2.67;;;;;;;;5081476;28;45414;-76
2024/04/02 09:03:02;;;;;;;;;1.00;1.00;;;;;;;;5090433;27;45394;-75
2024/04/02 09:05:30;;;;;;;;;1.00;1.00;;;;;;;;5100793;27;45325;-75
2024/04/02 09:07:56;;;;;;;;;1.67;1.67;;;;;;;;5100514;27;45147;-75
2024/04/02 09:10:21;;;;;;;;;3.67;2.67;;;;;;;;5096911;27;45297;-76
2024/04/02 09:12:46;;;;;;;;;5.00;2.00;;;;;;;;5079576;28;45216;-75
2024/04/02 09:15:12;;;;;;;;;2.67;2.00;;;;;;;;5079938;28;45362;-75
2024/04/02 09:17:37;;;;;;;;;2.33;2.00;;;;;;;;5079786;28;45338;-75
2024/04/02 09:20:02;;;;;;;;;2.00;2.00;;;;;;;;5080447;28;45220;-75
2024/04/02 09:22:28;;;;;;;;;6.00;4.00;;;;;;;;5079716;28;46393;-75
2024/04/02 09:24:53;;;;;;;;;2.00;1.00;;;;;;;;5079381;28;45341;-75
2024/04/02 09:27:20;;;;;;;;;1.00;1.00;;;;;;;;5079983;28;45435;-75
2024/04/02 09:29:45;;;;;;;;;0.67;0.67;;;;;;;;5080755;28;45398;-74
2024/04/02 09:32:10;;;;;;;;;4.33;3.33;;;;;;;;5076214;28;47023;-76
2024/04/02 09:34:36;;;;;;;;;2.67;2.00;;;;;;;;5078847;28;47030;-76
2024/04/02 09:37:20;;;;;;;;;2.33;2.33;;;;;;;;5081329;28;45789;-76
2024/04/02 09:39:45;;;;;;;;;1.67;1.67;;;;;;;;5079527;28;45368;-76
2024/04/02 09:42:11;;;;;;;;;2.67;2.00;;;;;;;;5079463;28;45300;-75
2024/04/02 09:44:36;;;;;;;;;3.67;1.33;;;;;;;;5078285;28;48359;-75
2024/04/02 09:47:03;;;;;;;;;4.33;3.00;;;;;;;;5078043;28;46193;-75
2024/04/02 09:49:28;;;;;;;;;4.67;1.33;;;;;;;;5079615;28;45347;-75
2024/04/02 09:51:55;;;;;;;;;3.00;2.00;;;;;;;;5059875;28;45292;-76
2024/04/02 09:54:21;;;;;;;;;2.00;2.00;;;;;;;;5059869;28;46198;-76
2024/04/02 09:56:48;;;;;;;;;2.67;1.00;;;;;;;;5067056;27;45299;-76
2024/04/02 09:59:13;;;;;;;;;3.00;1.00;;;;;;;;5100731;27;45336;-75
2024/04/02 10:01:40;;;;;;;;;1.33;1.33;;;;;;;;5100107;27;46359;-76
2024/04/02 10:04:06;;;;;;;;;2.00;1.00;;;;;;;;5101169;27;47534;-75
2024/04/02 10:06:32;;;;;;;;;1.67;1.00;;;;;;;;5098992;27;45350;-77
2024/04/02 10:09:03;;;;;;;;;3.00;2.00;;;;;;;;5102832;27;45376;-76
2024/04/02 10:11:46;;;;;;;;;2.00;2.00;;;;;;;;5103784;27;45283;-76
2024/04/02 10:14:14;;;;;;;;;0.67;0.67;;;;;;;;5102351;27;48768;-75
2024/04/02 10:16:40;;;;;;;;;2.00;2.00;;;;;;;;5104638;27;45354;-76
2024/04/02 10:19:11;;;;;;;;;4.00;2.33;;;;;;;;5104797;27;45404;-75
2024/04/02 10:21:37;;;;;;;;;2.00;2.00;;;;;;;;5103988;27;45259;-75
2024/04/02 10:24:03;;;;;;;;;1.00;1.00;;;;;;;;5103072;27;46267;-75
2024/04/02 10:26:30;;;;;;;;;0.00;0.00;;;;;;;;5102834;27;45283;-77
2024/04/02 10:28:58;;;;;;;;;2.00;0.67;;;;;;;;5104151;27;45377;-77
2024/04/02 10:31:44;;;;;;;;;1.00;1.00;;;;;;;;5103038;27;45470;-78
2024/04/02 10:34:10;;;;;;;;;1.00;1.00;;;;;;;;5102597;27;45314;-77
2024/04/02 10:36:35;;;;;;;;;0.00;0.00;;;;;;;;5102134;27;45607;-76
2024/04/02 10:39:01;;;;;;;;;1.00;1.00;;;;;;;;5103023;27;45337;-77
2024/04/02 10:41:29;;;;;;;;;2.67;1.67;;;;;;;;5104871;27;46389;-77
2024/04/02 10:43:54;;;;;;;;;2.00;2.00;;;;;;;;5092471;27;45309;-77
2024/04/02 10:46:19;;;;;;;;;2.33;2.33;;;;;;;;5085144;28;45763;-76
2024/04/02 10:48:45;;;;;;;;;3.00;1.33;;;;;;;;5084299;28;45443;-77
2024/04/02 10:51:10;;;;;;;;;1.00;1.00;;;;;;;;5065644;28;45367;-78
2024/04/02 10:53:35;;;;;;;;;2.33;1.67;;;;;;;;5081637;28;45505;-76
2024/04/02 10:56:02;;;;;;;;;1.67;0.00;;;;;;;;5081962;28;45308;-77
2024/04/02 10:58:27;;;;;;;;;2.00;2.00;;;;;;;;5098955;27;45325;-77
2024/04/02 11:00:53;;;;;;;;;3.00;3.00;;;;;;;;5096464;27;45297;-77
2024/04/02 11:03:19;;;;;;;;;0.67;0.67;;;;;;;;5082366;28;46209;-78
2024/04/02 11:05:44;;;;;;;;;1.00;0.00;;;;;;;;5080608;28;45351;-74
2024/04/02 11:08:09;;;;;;;;;1.67;0.67;;;;;;;;5080446;28;45314;-76
2024/04/02 11:10:34;;;;;;;;;0.00;0.00;;;;;;;;5081612;28;45434;-76
2024/04/02 11:12:59;;;;;;;;;1.00;1.00;;;;;;;;5080265;28;48257;-76
2024/04/02 11:15:24;;;;;;;;;1.33;1.33;;;;;;;;5081772;28;45338;-76
2024/04/02 11:17:50;;;;;;;;;0.00;0.00;;;;;;;;5082134;28;45671;-75
2024/04/02 11:20:15;;;;;;;;;1.33;1.00;;;;;;;;5074753;28;46263;-77
2024/04/02 11:25:24;;;;;;;;;2.75;1.00;;;;;;;;5081997;28;45373;-76
2024/04/02 11:27:49;;;;;;;;;1.00;1.00;;;;;;;;5083579;28;45523;-76
2024/04/02 11:30:15;;;;;;;;;0.00;0.00;;;;;;;;5067075;28;45543;-76
2024/04/02 11:32:41;;;;;;;;;1.00;1.00;;;;;;;;5079118;28;45350;-76
2024/04/02 11:35:13;;;;;;;;;0.00;0.00;;;;;;;;5084105;28;45330;-77
2024/04/02 11:37:39;;;;;;;;;0.00;0.00;;;;;;;;5078156;28;45427;-76
2024/04/02 11:40:05;;;;;;;;;0.00;0.00;;;;;;;;5081255;28;45856;-76
2024/04/02 11:42:30;;;;;;;;;1.67;1.67;;;;;;;;5081458;28;46796;-77
2024/04/02 11:45:00;;;;;;;;;2.00;0.00;;;;;;;;5081508;28;45286;-76
2024/04/02 11:47:25;;;;;;;;;1.00;0.00;;;;;;;;5081683;28;45294;-76
2024/04/02 11:49:51;;;;;;;;;0.33;0.33;;;;;;;;5080081;27;46013;-77
2024/04/02 11:52:16;;;;;;;;;0.33;0.33;;;;;;;;5081483;28;48522;-77
2024/04/02 11:54:41;;;;;;;;;0.00;0.00;;;;;;;;5082093;28;45298;-76
2024/04/02 12:02:34;;;;;;;;;0.00;0.00;;;;;;;;5082475;28;45315;-77
2024/04/02 12:05:00;;;;;;;;;0.00;0.00;;;;;;;;5081382;28;45310;-76
2024/04/02 12:07:29;;;;;;;;;0.75;0.00;;;;;;;;5081943;28;45380;-76
2024/04/02 12:09:56;;;;;;;;;1.50;1.00;;;;;;;;5081408;28;45806;-77
2024/04/02 12:12:22;;;;;;;;;0.00;0.00;;;;;;;;5081631;27;46350;-76
2024/04/02 12:14:47;;;;;;;;;0.00;0.00;;;;;;;;5077422;28;45300;-76
2024/04/02 12:17:12;;;;;;;;;0.50;0.50;;;;;;;;5079726;28;45259;-75
2024/04/02 12:19:37;;;;;;;;;0.00;0.00;;;;;;;;5082001;28;45279;-76
2024/04/02 12:22:02;;;;;;;;;0.00;0.00;;;;;;;;5079653;28;46281;-76
2024/04/02 12:24:28;;;;;;;;;0.00;0.00;;;;;;;;5080510;28;45289;-76
2024/04/02 12:26:53;;;;;;;;;1.00;0.00;;;;;;;;5076629;28;45438;-76
2024/04/02 12:29:18;;;;;;;;;0.00;0.00;;;;;;;;5070360;28;45287;-76
2024/04/02 12:31:44;;;;;;;;;0.00;0.00;;;;;;;;5066507;28;46210;-77
2024/04/02 12:34:09;;;;;;;;;0.00;0.00;;;;;;;;5070833;28;45450;-75
2024/04/02 12:36:34;;;;;;;;;0.00;0.00;;;;;;;;5073029;27;45636;-76
2024/04/02 12:39:00;;;;;;;;;10.67;10.67;;;;;;;;5061352;28;45488;-75
2024/04/02 12:41:25;;;;;;;;;1.50;1.50;;;;;;;;5064162;27;45529;-76
2024/04/02 12:43:50;;;;;;;;;0.00;0.00;;;;;;;;5061040;28;45295;-75
2024/04/02 12:46:15;;;;;;;;;0.00;0.00;;;;;;;;5067098;27;45284;-76
2024/04/02 12:48:40;;;;;;;;;0.00;0.00;;;;;;;;5068917;28;45425;-77
2024/04/02 12:51:05;;;;;;;;;0.00;0.00;;;;;;;;5068469;27;48574;-75
2024/04/02 12:53:30;;;;;;;;;0.00;0.00;;;;;;;;5074760;28;45343;-77
2024/04/02 12:55:56;;;;;;;;;0.00;0.00;;;;;;;;5077901;27;45340;-77
2024/04/02 12:58:21;;;;;;;;;0.00;0.00;;;;;;;;5096414;27;45303;-76
2024/04/02 13:00:46;;;;;;;;;0.00;0.00;;;;;;;;5099743;27;47049;-76
2024/04/02 13:03:11;;;;;;;;;0.00;0.00;;;;;;;;5100247;27;45313;-77
2024/04/02 13:05:37;;;;;;;;;0.00;0.00;;;;;;;;5100766;27;45313;-76
2024/04/02 13:08:05;;;;;;;;;0.00;0.00;;;;;;;;5100040;27;47043;-76
2024/04/02 13:10:44;;;;;;;;;0.00;0.00;;;;;;;;5100801;27;45443;-76
2024/04/02 13:13:10;;;;;;;;;0.00;0.00;;;;;;;;5100994;27;45505;-77
2024/04/02 13:15:36;;;;;;;;;0.00;0.00;;;;;;;;5100749;27;45318;-76
2024/04/02 13:18:02;;;;;;;;;0.00;0.00;;;;;;;;5087936;27;47147;-77
2024/04/02 13:20:29;;;;;;;;;0.00;0.00;;;;;;;;5077776;27;46268;-77
2024/04/02 13:22:54;;;;;;;;;0.00;0.00;;;;;;;;5080409;28;45627;-77
2024/04/02 13:25:19;;;;;;;;;0.50;0.00;;;;;;;;5080235;28;45604;-77
2024/04/02 13:27:45;;;;;;;;;0.00;0.00;;;;;;;;5080603;28;45329;-76
2024/04/02 13:30:11;;;;;;;;;1.50;0.00;;;;;;;;5078459;28;48276;-76
2024/04/02 13:32:36;;;;;;;;;0.50;0.00;;;;;;;;5080105;28;45192;-76
2024/04/02 13:35:01;;;;;;;;;0.00;0.00;;;;;;;;5078935;28;45540;-76
2024/04/02 13:37:26;;;;;;;;;0.00;0.00;;;;;;;;5072856;28;45452;-76
2024/04/02 13:39:52;;;;;;;;;0.00;0.00;;;;;;;;5079353;28;46033;-76
2024/04/02 13:42:17;;;;;;;;;0.00;0.00;;;;;;;;5080915;27;45336;-76
2024/04/02 13:44:43;;;;;;;;;0.00;0.00;;;;;;;;5083900;28;45449;-76
2024/04/02 13:47:09;;;;;;;;;0.50;0.00;;;;;;;;5084872;27;45172;-76
2024/04/02 13:49:34;;;;;;;;;1.00;1.00;;;;;;;;5082501;28;48021;-76
2024/04/02 13:52:00;;;;;;;;;0.00;0.00;;;;;;;;5083821;27;45141;-76
2024/04/02 13:54:25;;;;;;;;;0.25;0.25;;;;;;;;5084202;28;45482;-76
2024/04/02 13:56:50;;;;;;;;;0.00;0.00;;;;;;;;5088769;27;45509;-76
2024/04/02 13:59:16;;;;;;;;;0.25;0.00;;;;;;;;5104636;27;46647;-76
2024/04/02 14:01:41;;;;;;;;;0.00;0.00;;;;;;;;5104147;27;45513;-76
2024/04/02 14:04:06;;;;;;;;;0.00;0.00;;;;;;;;5101883;27;45377;-76
2024/04/02 14:06:31;;;;;;;;;0.00;0.00;;;;;;;;5081938;28;46022;-76
2024/04/02 14:08:56;;;;;;;;;0.00;0.00;;;;;;;;5082768;27;46441;-79
2024/04/02 14:11:21;;;;;;;;;0.00;0.00;;;;;;;;5081478;28;45431;-78
2024/04/02 14:13:47;;;;;;;;;0.00;0.00;;;;;;;;5081424;27;45400;-80
2024/04/02 14:16:13;;;;;;;;;0.00;0.00;;;;;;;;5080739;28;45310;-80
2024/04/02 14:18:38;;;;;;;;;0.00;0.00;;;;;;;;5079972;27;48459;-79
2024/04/02 14:21:04;;;;;;;;;0.00;0.00;;;;;;;;5081526;28;45262;-78
2024/04/02 14:23:30;;;;;;;;;0.33;0.00;;;;;;;;5080440;27;45341;-80
2024/04/02 14:25:56;;;;;;;;;0.00;0.00;;;;;;;;5068677;28;45350;-79
2024/04/02 14:28:22;;;;;;;;;2.00;1.00;;;;;;;;5074998;27;48139;-80
2024/04/02 14:30:47;;;;;;;;;0.00;0.00;;;;;;;;5068415;28;45354;-78
2024/04/02 14:33:12;;;;;;;;;2.00;2.00;;;;;;;;5073002;27;45268;-79
2024/04/02 14:35:45;;;;;;;;;0.67;0.00;;;;;;;;5080019;28;47079;-78
2024/04/02 14:38:10;;;;;;;;;2.00;1.00;;;;;;;;5081711;28;46229;-78
2024/04/02 14:40:35;;;;;;;;;1.33;1.00;;;;;;;;5075375;27;45198;-79
2024/04/02 14:43:00;;;;;;;;;1.33;0.33;;;;;;;;5081550;28;45188;-79